createdAt,value
2022-08-22T00:00:43.794Z,100604.47
2022-08-22T00:02:04.026Z,100607.38
2022-08-22T00:02:57.787Z,100582.03
2022-08-22T00:03:00.666Z,100611.25
2022-08-22T00:03:02.384Z,100620.63
2022-08-22T00:03:06.788Z,100598.00
2022-08-22T00:03:10.896Z,100611.03
2022-08-22T00:03:11.355Z,100612.25
2022-08-22T00:03:11.733Z,100581.19
2022-08-22T00:04:33.377Z,100607.81
2022-08-22T00:05:43.041Z,100612.03
2022-08-22T00:07:03.686Z,100610.56
2022-08-22T00:08:17.014Z,100612.03
2022-08-22T00:09:31.721Z,100619.13
2022-08-22T00:11:02.607Z,100613.91
2022-08-22T00:12:18.011Z,100618.53
2022-08-22T00:13:32.311Z,100627.50
2022-08-22T00:15:00.532Z,100623.09
2022-08-22T00:16:21.160Z,100629.59
2022-08-22T00:17:35.082Z,100630.84
2022-08-22T00:18:53.419Z,100631.06
2022-08-22T00:19:59.943Z,100631.31
2022-08-22T00:21:26.087Z,100630.22
2022-08-22T00:22:43.126Z,100630.88
2022-08-22T00:24:00.704Z,100620.44
2022-08-22T00:25:26.706Z,100630.47
2022-08-22T00:26:45.428Z,100641.34
2022-08-22T00:28:21.605Z,100640.50
2022-08-22T00:29:44.327Z,100636.75
2022-08-22T00:30:59.372Z,100647.81
2022-08-22T00:32:07.878Z,100646.56
2022-08-22T00:33:37.375Z,100655.97
2022-08-22T00:35:01.525Z,100654.94
2022-08-22T00:36:12.884Z,100657.47
2022-08-22T00:37:27.688Z,100655.19
2022-08-22T00:38:38.628Z,100651.84
2022-08-22T00:40:09.949Z,100658.06
2022-08-22T00:41:34.044Z,100654.31
2022-08-22T00:43:13.834Z,100653.06
2022-08-22T00:44:39.843Z,100664.56
2022-08-22T00:46:02.315Z,100655.59
2022-08-22T00:47:29.355Z,100653.91
2022-08-22T00:48:59.306Z,100660.78
2022-08-22T00:50:22.143Z,100652.88
2022-08-22T00:51:51.304Z,100656.03
2022-08-22T00:53:02.142Z,100654.34
2022-08-22T00:54:17.946Z,100659.38
2022-08-22T00:55:42.243Z,100656.47
2022-08-22T00:57:24.431Z,100652.28
2022-08-22T00:58:52.480Z,100666.91
2022-08-22T01:00:01.958Z,100665.44
2022-08-22T01:01:08.014Z,100669.47
2022-08-22T01:02:24.559Z,100677.19
2022-08-22T01:03:32.844Z,100674.91
2022-08-22T01:04:41.296Z,100671.75
2022-08-22T01:05:48.734Z,100679.91
2022-08-22T01:07:24.671Z,100651.53
2022-08-22T01:08:35.107Z,100678.25
2022-08-22T01:09:51.487Z,100685.16
2022-08-22T01:11:11.085Z,100682.00
2022-08-22T01:12:23.843Z,100680.75
2022-08-22T01:13:31.606Z,100689.97
2022-08-22T01:14:42.861Z,100693.94
2022-08-22T01:15:45.582Z,100681.19
2022-08-22T01:17:05.386Z,100688.72
2022-08-22T01:18:24.742Z,100689.34
2022-08-22T01:20:03.851Z,100693.94
2022-08-22T01:21:24.530Z,100698.75
2022-08-22T01:23:10.542Z,100698.34
2022-08-22T01:24:36.998Z,100695.78
2022-08-22T01:26:00.082Z,100694.56
2022-08-22T01:27:38.038Z,100695.41
2022-08-22T01:28:56.149Z,100698.13
2022-08-22T01:30:27.658Z,100697.28
2022-08-22T01:31:47.920Z,100698.34
2022-08-22T01:33:13.875Z,100694.19
2022-08-22T01:34:29.430Z,100698.75
2022-08-22T01:36:03.871Z,100695.41
2022-08-22T01:37:20.731Z,100696.44
2022-08-22T01:38:33.371Z,100688.09
2022-08-22T01:40:07.714Z,100689.78
2022-08-22T01:41:45.046Z,100690.38
2022-08-22T01:43:59.700Z,100685.16
2022-08-22T01:44:45.609Z,100700.44
2022-08-22T01:46:02.123Z,100701.69
2022-08-22T01:47:12.060Z,100705.91
2022-08-22T01:48:30.931Z,100715.09
2022-08-22T01:49:35.546Z,100722.22
2022-08-22T01:50:43.994Z,100720.97
2022-08-22T01:52:19.528Z,100723.03
2022-08-22T01:53:30.527Z,100735.19
2022-08-22T01:54:56.117Z,100742.31
2022-08-22T01:56:15.090Z,100743.97
2022-08-22T01:57:18.431Z,100728.09
2022-08-22T01:58:24.077Z,100740.44
2022-08-22T01:59:48.200Z,100744.41
2022-08-22T02:01:42.466Z,100743.97
2022-08-22T02:03:27.691Z,100740.59
2022-08-22T02:04:54.162Z,100747.94
2022-08-22T02:06:05.405Z,100744.59
2022-08-22T02:07:16.403Z,100751.72
2022-08-22T02:08:40.797Z,100743.59
2022-08-22T02:10:02.387Z,100748.59
2022-08-22T02:11:10.869Z,100744.84
2022-08-22T02:12:30.342Z,100746.94
2022-08-22T02:13:36.871Z,100745.25
2022-08-22T02:14:50.338Z,100733.34
2022-08-22T02:16:32.139Z,100739.78
2022-08-22T02:17:55.700Z,100743.34
2022-08-22T02:19:21.405Z,100741.50
2022-08-22T02:20:33.900Z,100739.16
2022-08-22T02:21:44.491Z,100743.34
2022-08-22T02:23:04.248Z,100759.91
2022-08-22T02:24:19.571Z,100752.75
2022-08-22T02:25:30.367Z,100753.81
2022-08-22T02:26:54.396Z,100759.91
2022-08-22T02:28:08.594Z,100760.28
2022-08-22T02:29:35.498Z,100747.97
2022-08-22T02:30:55.415Z,100756.75
2022-08-22T02:32:05.459Z,100756.75
2022-08-22T02:33:13.265Z,100757.19
2022-08-22T02:34:43.147Z,100761.16
2022-08-22T02:35:55.079Z,100760.28
2022-08-22T02:37:05.454Z,100766.16
2022-08-22T02:38:07.277Z,100760.09
2022-08-22T02:39:33.136Z,100762.19
2022-08-22T02:40:48.243Z,100769.72
2022-08-22T02:41:55.971Z,100769.94
2022-08-22T02:43:08.123Z,100771.41
2022-08-22T02:44:31.752Z,100767.63
2022-08-22T02:46:07.561Z,100765.13
2022-08-22T02:47:24.082Z,100742.16
2022-08-22T02:48:59.561Z,100770.34
2022-08-22T02:50:12.838Z,100774.13
2022-08-22T02:51:36.822Z,100766.59
2022-08-22T02:53:05.531Z,100771.16
2022-08-22T02:54:09.987Z,100768.25
2022-08-22T02:55:48.230Z,100778.75
2022-08-22T02:57:16.739Z,100781.84
2022-08-22T02:58:31.647Z,100784.56
2022-08-22T02:59:38.447Z,100787.72
2022-08-22T03:00:50.844Z,100786.28
2022-08-22T03:01:55.000Z,100782.06
2022-08-22T03:02:56.743Z,100789.59
2022-08-22T03:04:30.382Z,100787.72
2022-08-22T03:05:37.878Z,100794.44
2022-08-22T03:06:44.225Z,100788.78
2022-08-22T03:07:57.096Z,100791.28
2022-08-22T03:09:25.435Z,100788.75
2022-08-22T03:10:35.255Z,100788.56
2022-08-22T03:11:40.250Z,100794.41
2022-08-22T03:12:58.055Z,100797.75
2022-08-22T03:14:11.907Z,100792.31
2022-08-22T03:15:23.519Z,100783.34
2022-08-22T03:16:36.047Z,100798.81
2022-08-22T03:17:55.651Z,100805.50
2022-08-22T03:19:13.303Z,100814.06
2022-08-22T03:20:46.211Z,100802.16
2022-08-22T03:21:58.320Z,100801.34
2022-08-22T03:23:09.129Z,100801.53
2022-08-22T03:24:18.246Z,100796.31
2022-08-22T03:25:38.404Z,100792.94
2022-08-22T03:27:05.957Z,100796.28
2022-08-22T03:28:18.655Z,100783.56
2022-08-22T03:29:23.757Z,100815.97
2022-08-22T03:30:37.682Z,100810.09
2022-08-22T03:32:25.323Z,100814.06
2022-08-22T03:33:31.174Z,100802.16
2022-08-22T03:34:33.988Z,100808.84
2022-08-22T03:35:42.266Z,100812.19
2022-08-22T03:37:21.827Z,100818.88
2022-08-22T03:38:29.439Z,100806.13
2022-08-22T03:40:03.278Z,100812.63
2022-08-22T03:41:08.132Z,100821.59
2022-08-22T03:43:04.055Z,100827.66
2022-08-22T03:44:30.666Z,100828.50
2022-08-22T03:45:53.594Z,100829.13
2022-08-22T03:47:04.241Z,100826.41
2022-08-22T03:48:20.593Z,100827.66
2022-08-22T03:49:45.428Z,100840.63
2022-08-22T03:51:10.295Z,100840.63
2022-08-22T03:53:02.325Z,100840.63
2022-08-22T03:54:26.044Z,100838.53
2022-08-22T03:55:44.460Z,100841.66
2022-08-22T03:57:06.476Z,100841.66
2022-08-22T03:58:31.434Z,100839.78
2022-08-22T04:00:11.361Z,100839.16
2022-08-22T04:01:13.664Z,100842.91
2022-08-22T04:02:43.541Z,100849.41
2022-08-22T04:04:10.483Z,100852.97
2022-08-22T04:05:46.121Z,100852.97
2022-08-22T04:07:05.930Z,100846.69
2022-08-22T04:08:29.446Z,100861.72
2022-08-22T04:09:52.648Z,100840.16
2022-08-22T04:11:38.374Z,100873.22
2022-08-22T04:13:16.351Z,100861.97
2022-08-22T04:14:48.942Z,100870.94
2022-08-22T04:16:26.547Z,100862.97
2022-08-22T04:17:46.622Z,100859.25
2022-08-22T04:19:22.831Z,100864.44
2022-08-22T04:20:55.179Z,100866.34
2022-08-22T04:22:17.967Z,100873.47
2022-08-22T04:23:43.712Z,100874.50
2022-08-22T04:24:58.968Z,100875.34
2022-08-22T04:26:12.338Z,100888.06
2022-08-22T04:27:29.783Z,100879.28
2022-08-22T04:28:41.460Z,100881.16
2022-08-22T04:29:52.267Z,100879.66
2022-08-22T04:31:02.743Z,100883.25
2022-08-22T04:32:14.598Z,100874.03
2022-08-22T04:33:30.485Z,100887.63
2022-08-22T04:34:55.983Z,100891.22
2022-08-22T04:36:00.959Z,100879.91
2022-08-22T04:37:18.753Z,100899.31
2022-08-22T04:38:29.466Z,100895.78
2022-08-22T04:39:38.941Z,100897.47
2022-08-22T04:40:50.803Z,100899.31
2022-08-22T04:42:28.727Z,100881.56
2022-08-22T04:43:31.615Z,100905.00
2022-08-22T04:44:43.666Z,100912.75
2022-08-22T04:46:32.061Z,100911.50
2022-08-22T04:48:16.851Z,100908.16
2022-08-22T04:49:24.770Z,100910.47
2022-08-22T04:50:31.933Z,100900.41
2022-08-22T04:51:38.802Z,100905.59
2022-08-22T04:53:03.303Z,100906.03
2022-08-22T04:54:23.866Z,100914.44
2022-08-22T04:55:34.851Z,100913.75
2022-08-22T04:56:52.018Z,100918.56
2022-08-22T04:58:22.408Z,100924.03
2022-08-22T04:59:25.180Z,100932.41
2022-08-22T05:01:11.254Z,100922.78
2022-08-22T05:02:22.430Z,100925.69
2022-08-22T05:03:27.113Z,100934.50
2022-08-22T05:04:32.502Z,100921.03
2022-08-22T05:05:39.642Z,100933.56
2022-08-22T05:06:47.963Z,100937.97
2022-08-22T05:07:55.577Z,100931.50
2022-08-22T05:09:02.818Z,100927.94
2022-08-22T05:10:13.713Z,100936.09
2022-08-22T05:11:19.449Z,100945.50
2022-08-22T05:12:29.274Z,100947.59
2022-08-22T05:13:43.349Z,100953.50
2022-08-22T05:14:55.251Z,100953.50
2022-08-22T05:16:05.241Z,100956.44
2022-08-22T05:17:09.839Z,100958.75
2022-08-22T05:18:22.291Z,100960.19
2022-08-22T05:19:32.273Z,100962.09
2022-08-22T05:20:36.611Z,100963.97
2022-08-22T05:21:41.794Z,100966.50
2022-08-22T05:22:50.583Z,100967.16
2022-08-22T05:24:02.258Z,100957.72
2022-08-22T05:25:11.100Z,100965.47
2022-08-22T05:26:14.879Z,100971.97
2022-08-22T05:27:21.878Z,100977.81
2022-08-22T05:28:26.572Z,100982.84
2022-08-22T05:29:32.354Z,100979.91
2022-08-22T05:30:35.747Z,100975.09
2022-08-22T05:32:04.758Z,100971.53
2022-08-22T05:33:30.942Z,100973.88
2022-08-22T05:34:38.997Z,100986.03
2022-08-22T05:35:55.848Z,100989.13
2022-08-22T05:37:17.881Z,100987.50
2022-08-22T05:38:25.923Z,100983.31
2022-08-22T05:39:29.944Z,100991.06
2022-08-22T05:40:37.800Z,100982.03
2022-08-22T05:41:41.675Z,100985.81
2022-08-22T05:42:44.469Z,100977.88
2022-08-22T05:43:49.402Z,100992.94
2022-08-22T05:44:51.690Z,101003.41
2022-08-22T05:45:58.111Z,100999.19
2022-08-22T05:47:23.482Z,100994.19
2022-08-22T05:48:40.554Z,100985.41
2022-08-22T05:49:57.606Z,100990.44
2022-08-22T05:51:13.274Z,101002.16
2022-08-22T05:52:33.374Z,101009.47
2022-08-22T05:53:43.195Z,101013.44
2022-08-22T05:54:53.641Z,101003.38
2022-08-22T05:56:22.805Z,101024.53
2022-08-22T05:57:31.848Z,101024.31
2022-08-22T05:58:39.922Z,101018.88
2022-08-22T05:59:44.131Z,101015.53
2022-08-22T06:00:56.353Z,101003.41
2022-08-22T06:02:09.625Z,101017.19
2022-08-22T06:03:16.863Z,101023.91
2022-08-22T06:04:40.279Z,101030.38
2022-08-22T06:05:47.103Z,101034.34
2022-08-22T06:07:07.458Z,101031.22
2022-08-22T06:08:34.542Z,101032.88
2022-08-22T06:09:48.251Z,101035.19
2022-08-22T06:10:55.084Z,101041.06
2022-08-22T06:12:04.927Z,101036.03
2022-08-22T06:13:15.268Z,101042.34
2022-08-22T06:14:41.194Z,101039.38
2022-08-22T06:16:22.772Z,101047.34
2022-08-22T06:17:35.411Z,101051.75
2022-08-22T06:18:40.230Z,101041.06
2022-08-22T06:19:48.278Z,101039.59
2022-08-22T06:21:03.136Z,101053.22
2022-08-22T06:22:05.835Z,101052.41
2022-08-22T06:23:19.286Z,101049.84
2022-08-22T06:24:24.971Z,101055.28
2022-08-22T06:25:32.423Z,101047.78
2022-08-22T06:26:46.077Z,101056.75
2022-08-22T06:27:51.080Z,101061.41
2022-08-22T06:28:58.287Z,101066.19
2022-08-22T06:30:02.720Z,101070.38
2022-08-22T06:31:08.432Z,101066.41
2022-08-22T06:32:16.732Z,101073.72
2022-08-22T06:33:42.343Z,101070.19
2022-08-22T06:34:47.426Z,101073.97
2022-08-22T06:36:11.163Z,101081.47
2022-08-22T06:37:25.488Z,101074.59
2022-08-22T06:38:33.588Z,101085.69
2022-08-22T06:39:39.119Z,101082.13
2022-08-22T06:40:41.959Z,101075.81
2022-08-22T06:42:14.639Z,101075.00
2022-08-22T06:43:19.610Z,101088.84
2022-08-22T06:44:27.773Z,101090.28
2022-08-22T06:45:32.213Z,101089.44
2022-08-22T06:46:37.883Z,101093.41
2022-08-22T06:47:49.842Z,101101.81
2022-08-22T06:48:55.714Z,101097.81
2022-08-22T06:50:04.913Z,101107.88
2022-08-22T06:51:08.844Z,101102.22
2022-08-22T06:52:33.168Z,101100.13
2022-08-22T06:53:45.943Z,101083.78
2022-08-22T06:55:00.383Z,101098.47
2022-08-22T06:56:05.681Z,101105.59
2022-08-22T06:57:25.144Z,101101.19
2022-08-22T06:58:33.916Z,101110.22
2022-08-22T06:59:39.390Z,101105.97
2022-08-22T07:00:43.339Z,101105.16
2022-08-22T07:02:20.935Z,101114.38
2022-08-22T07:03:35.173Z,101117.09
2022-08-22T07:04:37.462Z,101109.75
2022-08-22T07:05:41.545Z,101109.75
2022-08-22T07:06:50.192Z,101114.56
2022-08-22T07:07:53.049Z,101118.97
2022-08-22T07:08:56.135Z,101119.19
2022-08-22T07:09:58.104Z,101113.31
2022-08-22T07:11:31.091Z,101114.38
2022-08-22T07:12:37.921Z,101116.03
2022-08-22T07:13:51.680Z,101118.13
2022-08-22T07:14:58.727Z,101115.19
2022-08-22T07:16:05.163Z,101109.75
2022-08-22T07:17:09.472Z,101129.22
2022-08-22T07:18:20.613Z,101121.06
2022-08-22T07:19:35.371Z,101122.72
2022-08-22T07:20:42.287Z,101129.03
2022-08-22T07:21:48.453Z,101129.63
2022-08-22T07:23:06.067Z,101130.91
2022-08-22T07:24:09.898Z,101129.44
2022-08-22T07:25:15.211Z,101137.81
2022-08-22T07:26:44.679Z,101137.38
2022-08-22T07:28:00.890Z,101144.97
2022-08-22T07:29:11.648Z,101134.91
2022-08-22T07:30:27.688Z,101130.91
2022-08-22T07:31:42.732Z,101142.41
2022-08-22T07:32:56.303Z,101142.41
2022-08-22T07:34:31.403Z,101136.75
2022-08-22T07:35:44.306Z,101143.69
2022-08-22T07:37:17.866Z,101145.00
2022-08-22T07:38:42.866Z,101147.03
2022-08-22T07:40:27.438Z,101144.56
2022-08-22T07:41:55.918Z,101144.31
2022-08-22T07:43:05.034Z,101143.31
2022-08-22T07:44:16.562Z,101151.03
2022-08-22T07:45:35.442Z,101160.03
2022-08-22T07:46:43.803Z,101160.41
2022-08-22T07:47:53.407Z,101165.03
2022-08-22T07:49:10.053Z,101165.47
2022-08-22T07:50:18.378Z,101167.97
2022-08-22T07:51:55.968Z,101160.44
2022-08-22T07:53:13.494Z,101164.19
2022-08-22T07:54:27.240Z,101162.97
2022-08-22T07:55:29.660Z,101164.03
2022-08-22T07:56:36.694Z,101169.22
2022-08-22T07:57:43.502Z,101167.97
2022-08-22T07:58:48.782Z,101169.88
2022-08-22T07:59:54.656Z,101176.13
2022-08-22T08:00:58.422Z,101168.38
2022-08-22T08:02:04.810Z,101165.88
2022-08-22T08:03:08.342Z,101176.75
2022-08-22T08:04:16.835Z,101181.38
2022-08-22T08:05:22.340Z,101185.59
2022-08-22T08:06:26.416Z,101177.41
2022-08-22T08:07:32.180Z,101173.88
2022-08-22T08:08:44.131Z,101190.63
2022-08-22T08:10:13.034Z,101185.19
2022-08-22T08:11:17.097Z,101187.72
2022-08-22T08:12:26.338Z,101191.69
2022-08-22T08:13:36.281Z,101180.16
2022-08-22T08:14:41.719Z,101192.31
2022-08-22T08:15:45.794Z,101189.81
2022-08-22T08:17:06.117Z,101186.66
2022-08-22T08:18:21.874Z,101197.34
2022-08-22T08:19:25.018Z,101199.44
2022-08-22T08:20:28.566Z,101195.25
2022-08-22T08:21:36.333Z,101203.63
2022-08-22T08:22:40.827Z,101195.25
2022-08-22T08:23:46.297Z,101202.59
2022-08-22T08:24:49.183Z,101190.84
2022-08-22T08:26:03.926Z,101198.81
2022-08-22T08:27:30.368Z,101200.50
2022-08-22T08:28:36.288Z,101197.97
2022-08-22T08:29:39.214Z,101195.25
2022-08-22T08:30:46.714Z,101200.25
2022-08-22T08:31:48.558Z,101196.50
2022-08-22T08:32:57.348Z,101196.91
2022-08-22T08:34:24.540Z,101204.88
2022-08-22T08:35:42.415Z,101201.75
2022-08-22T08:37:03.345Z,101206.59
2022-08-22T08:38:15.651Z,101212.84
2022-08-22T08:39:42.474Z,101210.97
2022-08-22T08:41:05.895Z,101215.38
2022-08-22T08:42:10.474Z,101216.00
2022-08-22T08:43:34.418Z,101213.72
2022-08-22T08:45:12.683Z,101213.69
2022-08-22T08:46:59.042Z,101215.78
2022-08-22T08:48:25.515Z,101228.56
2022-08-22T08:49:42.966Z,101214.13
2022-08-22T08:51:12.049Z,101214.13
2022-08-22T08:52:52.547Z,101213.69
2022-08-22T08:54:20.342Z,101216.63
2022-08-22T08:55:27.993Z,101216.22
2022-08-22T08:56:58.711Z,101218.09
2022-08-22T08:58:19.249Z,101223.53
2022-08-22T08:59:46.654Z,101227.50
2022-08-22T09:01:02.989Z,101226.25
2022-08-22T09:02:20.345Z,101225.63
2022-08-22T09:04:04.533Z,101229.63
2022-08-22T09:05:36.271Z,101232.34
2022-08-22T09:07:27.470Z,101233.59
2022-08-22T09:08:55.522Z,101229.63
2022-08-22T09:10:16.553Z,101235.06
2022-08-22T09:11:46.492Z,101225.00
2022-08-22T09:13:12.594Z,101242.19
2022-08-22T09:14:21.401Z,101237.16
2022-08-22T09:15:43.356Z,101232.13
2022-08-22T09:17:28.067Z,101236.53
2022-08-22T09:18:29.863Z,101237.78
2022-08-22T09:20:15.496Z,101237.16
2022-08-22T09:21:31.202Z,101231.28
2022-08-22T09:22:50.057Z,101237.16
2022-08-22T09:24:23.373Z,101230.03
2022-08-22T09:25:38.625Z,101232.13
2022-08-22T09:26:50.866Z,101243.88
2022-08-22T09:28:21.301Z,101242.59
2022-08-22T09:31:44.887Z,101241.56
2022-08-22T09:33:04.342Z,101249.75
2022-08-22T09:34:30.785Z,101242.59
2022-08-22T09:35:50.433Z,101248.69
2022-08-22T09:37:34.095Z,101254.75
2022-08-22T09:38:55.410Z,101254.75
2022-08-22T09:40:10.485Z,101257.91
2022-08-22T09:41:37.479Z,101256.03
2022-08-22T09:42:44.784Z,101263.56
2022-08-22T09:44:15.592Z,101257.50
2022-08-22T09:45:36.492Z,101260.84
2022-08-22T09:46:41.298Z,101253.09
2022-08-22T09:48:02.172Z,101261.28
2022-08-22T09:49:28.380Z,101258.56
2022-08-22T09:50:38.582Z,101248.47
2022-08-22T09:52:15.208Z,101255.59
2022-08-22T09:53:21.471Z,101250.16
2022-08-22T09:54:56.562Z,101260.00
2022-08-22T09:56:26.198Z,101261.66
2022-08-22T09:57:43.367Z,101266.06
2022-08-22T09:59:12.129Z,101258.31
2022-08-22T10:00:22.638Z,101265.44
2022-08-22T10:01:32.948Z,101266.91
2022-08-22T10:02:50.674Z,101263.56
2022-08-22T10:04:04.383Z,101270.69
2022-08-22T10:05:43.620Z,101269.22
2022-08-22T10:06:58.347Z,101269.84
2022-08-22T10:08:32.058Z,101269.22
2022-08-22T10:09:42.159Z,101267.13
2022-08-22T10:11:00.287Z,101278.03
2022-08-22T10:12:12.271Z,101266.09
2022-08-22T10:13:34.074Z,101269.00
2022-08-22T10:15:07.006Z,101254.97
2022-08-22T10:16:30.347Z,101271.94
2022-08-22T10:17:41.092Z,101271.53
2022-08-22T10:19:00.703Z,101270.25
2022-08-22T10:20:15.107Z,101277.63
2022-08-22T10:21:33.044Z,101272.34
2022-08-22T10:23:00.840Z,101275.53
2022-08-22T10:24:25.523Z,101277.38
2022-08-22T10:25:42.303Z,101271.94
2022-08-22T10:26:50.813Z,101270.06
2022-08-22T10:28:03.302Z,101281.81
2022-08-22T10:29:26.955Z,101282.00
2022-08-22T10:30:49.719Z,101282.22
2022-08-22T10:32:10.722Z,101289.34
2022-08-22T10:33:20.475Z,101287.47
2022-08-22T10:34:30.954Z,101292.47
2022-08-22T10:35:47.802Z,101286.81
2022-08-22T10:37:08.199Z,101289.75
2022-08-22T10:38:29.497Z,101298.13
2022-08-22T10:39:52.628Z,101291.66
2022-08-22T10:41:27.199Z,101302.97
2022-08-22T10:42:36.451Z,101295.84
2022-08-22T10:43:58.464Z,101299.19
2022-08-22T10:45:36.331Z,101303.16
2022-08-22T10:46:43.867Z,101312.63
2022-08-22T10:48:08.836Z,101309.66
2022-08-22T10:49:20.520Z,101306.53
2022-08-22T10:50:31.884Z,101303.38
2022-08-22T10:51:46.011Z,101313.22
2022-08-22T10:53:29.553Z,101315.94
2022-08-22T10:54:48.487Z,101311.34
2022-08-22T10:55:58.922Z,101311.34
2022-08-22T10:57:00.663Z,101320.16
2022-08-22T10:58:09.519Z,101320.13
2022-08-22T10:59:38.174Z,101325.16
2022-08-22T11:01:38.035Z,101318.47
2022-08-22T11:02:42.136Z,101328.31
2022-08-22T11:04:12.309Z,101328.31
2022-08-22T11:05:24.222Z,101322.66
2022-08-22T11:07:16.007Z,101330.00
2022-08-22T11:08:42.601Z,101326.44
2022-08-22T11:09:53.807Z,101327.69
2022-08-22T11:11:17.664Z,101337.97
2022-08-22T11:12:34.676Z,101337.31
2022-08-22T11:13:43.620Z,101323.50
2022-08-22T11:14:45.383Z,101336.91
2022-08-22T11:15:56.483Z,101335.44
2022-08-22T11:17:27.480Z,101335.63
2022-08-22T11:19:02.742Z,101337.97
2022-08-22T11:20:35.066Z,101340.69
2022-08-22T11:22:00.462Z,101335.66
2022-08-22T11:23:16.595Z,101323.91
2022-08-22T11:24:36.095Z,101339.00
2022-08-22T11:25:52.529Z,101338.19
2022-08-22T11:27:38.006Z,101339.44
2022-08-22T11:29:13.189Z,101347.38
2022-08-22T11:30:44.081Z,101344.25
2022-08-22T11:32:07.890Z,101344.25
2022-08-22T11:33:16.855Z,101347.81
2022-08-22T11:34:56.032Z,101354.31
2022-08-22T11:36:27.848Z,101347.81
2022-08-22T11:38:03.098Z,101345.94
2022-08-22T11:39:28.378Z,101339.63
2022-08-22T11:40:38.657Z,101358.06
2022-08-22T11:42:47.381Z,101355.97
2022-08-22T11:43:52.970Z,101358.91
2022-08-22T11:44:58.499Z,101365.41
2022-08-22T11:46:20.063Z,101348.41
2022-08-22T11:47:27.442Z,101357.22
2022-08-22T11:48:47.366Z,101358.47
2022-08-22T11:49:50.691Z,101370.44
2022-08-22T11:51:13.741Z,101378.19
2022-08-22T11:52:43.720Z,101365.19
2022-08-22T11:54:19.967Z,101363.94
2022-08-22T11:55:33.253Z,101366.06
2022-08-22T11:56:53.362Z,101361.66
2022-08-22T11:58:03.249Z,101367.50
2022-08-22T11:59:19.424Z,101379.22
2022-08-22T12:00:43.566Z,101369.38
2022-08-22T12:01:56.940Z,101372.09
2022-08-22T12:03:07.761Z,101371.28
2022-08-22T12:04:35.761Z,101373.38
2022-08-22T12:05:46.135Z,101378.19
2022-08-22T12:06:56.045Z,101373.16
2022-08-22T12:08:11.598Z,101374.84
2022-08-22T12:09:29.716Z,101367.06
2022-08-22T12:10:36.066Z,101376.72
2022-08-22T12:12:13.552Z,101382.59
2022-08-22T12:13:37.283Z,101383.03
2022-08-22T12:14:45.262Z,101377.13
2022-08-22T12:15:56.336Z,101383.00
2022-08-22T12:17:50.803Z,101380.91
2022-08-22T12:18:59.874Z,101385.75
2022-08-22T12:20:17.196Z,101394.34
2022-08-22T12:21:43.539Z,101405.03
2022-08-22T12:23:07.038Z,101408.78
2022-08-22T12:24:41.271Z,101402.09
2022-08-22T12:25:49.519Z,101405.66
2022-08-22T12:27:00.995Z,101406.06
2022-08-22T12:28:15.842Z,101405.25
2022-08-22T12:29:34.034Z,101408.78
2022-08-22T12:31:00.083Z,101411.97
2022-08-22T12:32:28.592Z,101408.59
2022-08-22T12:33:42.535Z,101411.97
2022-08-22T12:34:52.849Z,101405.25
2022-08-22T12:36:33.027Z,101406.09
2022-08-22T12:37:53.093Z,101411.97
2022-08-22T12:39:12.570Z,101402.09
2022-08-22T12:40:29.629Z,101405.66
2022-08-22T12:41:38.786Z,101403.16
2022-08-22T12:42:50.291Z,101408.16
2022-08-22T12:44:25.340Z,101406.69
2022-08-22T12:45:58.611Z,101410.69
2022-08-22T12:47:43.269Z,101405.88
2022-08-22T12:49:08.149Z,101412.81
2022-08-22T12:50:28.862Z,101414.28
2022-08-22T12:51:39.715Z,101419.09
2022-08-22T12:53:00.595Z,101412.78
2022-08-22T12:54:24.154Z,101417.81
2022-08-22T12:55:57.218Z,101415.31
2022-08-22T12:57:25.078Z,101413.22
2022-08-22T12:58:41.683Z,101410.28
2022-08-22T12:59:48.247Z,101406.06
2022-08-22T13:00:52.596Z,101395.53
2022-08-22T13:01:59.510Z,101408.56
2022-08-22T13:03:09.600Z,101412.34
2022-08-22T13:04:29.713Z,101412.34
2022-08-22T13:05:40.620Z,101407.94
2022-08-22T13:06:51.275Z,101411.94
2022-08-22T13:08:05.204Z,101415.69
2022-08-22T13:09:19.748Z,101407.53
2022-08-22T13:10:39.788Z,101415.28
2022-08-22T13:11:46.011Z,101418.00
2022-08-22T13:12:52.764Z,101413.81
2022-08-22T13:13:58.863Z,101407.75
2022-08-22T13:15:22.175Z,101411.50
2022-08-22T13:16:34.720Z,101412.78
2022-08-22T13:17:38.536Z,101416.97
2022-08-22T13:18:54.994Z,101416.53
2022-08-22T13:20:11.010Z,101416.97
2022-08-22T13:21:17.941Z,101423.44
2022-08-22T13:22:27.794Z,101420.72
2022-08-22T13:23:39.850Z,101420.72
2022-08-22T13:24:55.137Z,101426.19
2022-08-22T13:26:33.004Z,101416.53
2022-08-22T13:27:51.228Z,101415.31
2022-08-22T13:29:15.527Z,101426.41
2022-08-22T13:30:37.697Z,101424.94
2022-08-22T13:31:42.232Z,101417.19
2022-08-22T13:32:51.334Z,101425.78
2022-08-22T13:34:23.877Z,101418.00
2022-08-22T13:35:53.527Z,101414.88
2022-08-22T13:37:00.988Z,101424.31
2022-08-22T13:38:13.420Z,101420.94
2022-08-22T13:39:15.162Z,101430.16
2022-08-22T13:40:27.124Z,101418.00
2022-08-22T13:41:38.256Z,101420.72
2022-08-22T13:42:50.180Z,101427.84
2022-08-22T13:44:04.883Z,101426.81
2022-08-22T13:45:15.309Z,101424.09
2022-08-22T13:46:25.943Z,101415.69
2022-08-22T13:47:34.397Z,101426.81
2022-08-22T13:48:50.248Z,101426.81
2022-08-22T13:49:55.447Z,101425.78
2022-08-22T13:51:02.128Z,101434.16
2022-08-22T13:52:52.580Z,101437.53
2022-08-22T13:54:10.958Z,101429.75
2022-08-22T13:55:20.171Z,101440.47
2022-08-22T13:56:28.639Z,101430.41
2022-08-22T13:57:39.415Z,101438.34
2022-08-22T13:58:47.541Z,101433.94
2022-08-22T14:00:28.911Z,101437.06
2022-08-22T14:01:40.005Z,101437.53
2022-08-22T14:03:24.603Z,101438.16
2022-08-22T14:04:36.116Z,101436.06
2022-08-22T14:05:53.222Z,101441.28
2022-08-22T14:07:14.970Z,101448.66
2022-08-22T14:08:25.871Z,101454.91
2022-08-22T14:09:56.115Z,101450.72
2022-08-22T14:11:12.201Z,101452.41
2022-08-22T14:12:29.193Z,101454.28
2022-08-22T14:13:41.043Z,101461.63
2022-08-22T14:14:49.060Z,101462.03
2022-08-22T14:16:33.714Z,101459.13
2022-08-22T14:17:43.109Z,101465.63
2022-08-22T14:18:50.521Z,101461.63
2022-08-22T14:20:06.918Z,101457.59
2022-08-22T14:21:28.391Z,101459.53
2022-08-22T14:22:37.997Z,101460.59
2022-08-22T14:23:40.529Z,101459.09
2022-08-22T14:24:59.240Z,101463.09
2022-08-22T14:26:01.386Z,101461.81
2022-08-22T14:27:08.590Z,101452.59
2022-08-22T14:28:29.734Z,101468.94
2022-08-22T14:29:42.308Z,101457.41
2022-08-22T14:31:00.540Z,101467.91
2022-08-22T14:32:12.471Z,101470.63
2022-08-22T14:33:24.544Z,101470.00
2022-08-22T14:34:28.968Z,101474.63
2022-08-22T14:35:38.168Z,101480.25
2022-08-22T14:36:55.113Z,101482.56
2022-08-22T14:38:30.236Z,101479.84
2022-08-22T14:39:41.531Z,101486.56
2022-08-22T14:40:52.848Z,101479.66